sensor_id;sensor_type;location;lat;lon;timestamp;P1;durP1;ratioP1;P2;durP2;ratioP2
5277;SDS011;2662;51.194;6.614;2023-03-23T00:00:09;3.23;;;1.90;;
5277;SDS011;2662;51.194;6.614;2023-03-23T00:02:38;1.80;;;1.40;;
5277;SDS011;2662;51.194;6.614;2023-03-23T00:05:05;7.93;;;2.20;;
5277;SDS011;2662;51.194;6.614;2023-03-23T00:07:33;3.43;;;1.80;;
5277;SDS011;2662;51.194;6.614;2023-03-23T00:10:02;3.23;;;1.80;;
5277;SDS011;2662;51.194;6.614;2023-03-23T00:12:30;3.23;;;1.80;;
5277;SDS011;2662;51.194;6.614;2023-03-23T00:14:59;3.03;;;1.90;;
5277;SDS011;2662;51.194;6.614;2023-03-23T00:17:26;6.50;;;1.90;;
5277;SDS011;2662;51.194;6.614;2023-03-23T00:19:53;2.90;;;1.97;;
5277;SDS011;2662;51.194;6.614;2023-03-23T00:22:20;1.80;;;1.70;;
5277;SDS011;2662;51.194;6.614;2023-03-23T00:24:50;4.37;;;1.70;;
5277;SDS011;2662;51.194;6.614;2023-03-23T00:27:19;3.83;;;1.77;;
5277;SDS011;2662;51.194;6.614;2023-03-23T00:29:47;3.13;;;2.10;;
5277;SDS011;2662;51.194;6.614;2023-03-23T00:32:17;2.07;;;1.87;;
5277;SDS011;2662;51.194;6.614;2023-03-23T00:34:46;2.30;;;2.00;;
5277;SDS011;2662;51.194;6.614;2023-03-23T00:37:14;5.43;;;1.70;;
5277;SDS011;2662;51.194;6.614;2023-03-23T00:39:42;2.13;;;1.80;;
5277;SDS011;2662;51.194;6.614;2023-03-23T00:42:11;2.57;;;1.80;;
5277;SDS011;2662;51.194;6.614;2023-03-23T00:44:40;1.90;;;1.80;;
5277;SDS011;2662;51.194;6.614;2023-03-23T00:47:08;1.47;;;1.40;;
5277;SDS011;2662;51.194;6.614;2023-03-23T00:49:35;1.83;;;1.73;;
5277;SDS011;2662;51.194;6.614;2023-03-23T00:52:03;3.33;;;1.53;;
5277;SDS011;2662;51.194;6.614;2023-03-23T00:54:32;2.63;;;1.83;;
5277;SDS011;2662;51.194;6.614;2023-03-23T00:56:59;1.70;;;1.57;;
5277;SDS011;2662;51.194;6.614;2023-03-23T00:59:26;4.13;;;1.80;;
5277;SDS011;2662;51.194;6.614;2023-03-23T01:01:54;2.23;;;1.70;;
5277;SDS011;2662;51.194;6.614;2023-03-23T01:04:20;3.17;;;2.10;;
5277;SDS011;2662;51.194;6.614;2023-03-23T01:06:48;2.60;;;1.60;;
5277;SDS011;2662;51.194;6.614;2023-03-23T01:09:17;2.90;;;1.57;;
5277;SDS011;2662;51.194;6.614;2023-03-23T01:11:46;2.70;;;1.90;;
5277;SDS011;2662;51.194;6.614;2023-03-23T01:14:14;4.10;;;1.67;;
5277;SDS011;2662;51.194;6.614;2023-03-23T01:16:42;4.00;;;1.73;;
5277;SDS011;2662;51.194;6.614;2023-03-23T01:19:10;1.97;;;1.87;;
5277;SDS011;2662;51.194;6.614;2023-03-23T01:21:37;1.90;;;1.60;;
5277;SDS011;2662;51.194;6.614;2023-03-23T01:24:04;4.93;;;1.87;;
5277;SDS011;2662;51.194;6.614;2023-03-23T01:26:32;2.17;;;1.80;;
5277;SDS011;2662;51.194;6.614;2023-03-23T01:28:58;2.30;;;1.80;;
5277;SDS011;2662;51.194;6.614;2023-03-23T01:31:25;2.40;;;2.10;;
5277;SDS011;2662;51.194;6.614;2023-03-23T01:33:52;2.57;;;1.70;;
5277;SDS011;2662;51.194;6.614;2023-03-23T01:36:23;3.10;;;1.87;;
5277;SDS011;2662;51.194;6.614;2023-03-23T01:38:51;2.80;;;2.03;;
5277;SDS011;2662;51.194;6.614;2023-03-23T01:41:19;2.53;;;2.00;;
5277;SDS011;2662;51.194;6.614;2023-03-23T01:43:53;9.53;;;2.30;;
5277;SDS011;2662;51.194;6.614;2023-03-23T01:46:21;2.70;;;1.60;;
5277;SDS011;2662;51.194;6.614;2023-03-23T01:48:48;21.73;;;2.40;;
5277;SDS011;2662;51.194;6.614;2023-03-23T01:51:17;6.13;;;2.17;;
5277;SDS011;2662;51.194;6.614;2023-03-23T01:53:47;4.50;;;2.40;;
5277;SDS011;2662;51.194;6.614;2023-03-23T01:56:18;4.20;;;2.40;;
5277;SDS011;2662;51.194;6.614;2023-03-23T01:58:50;4.87;;;2.20;;
5277;SDS011;2662;51.194;6.614;2023-03-23T02:01:18;3.73;;;2.00;;
5277;SDS011;2662;51.194;6.614;2023-03-23T02:03:46;4.50;;;2.20;;
5277;SDS011;2662;51.194;6.614;2023-03-23T02:06:14;2.07;;;1.93;;
5277;SDS011;2662;51.194;6.614;2023-03-23T02:08:41;3.50;;;2.13;;
5277;SDS011;2662;51.194;6.614;2023-03-23T02:11:14;4.73;;;2.60;;
5277;SDS011;2662;51.194;6.614;2023-03-23T02:13:42;3.37;;;2.43;;
5277;SDS011;2662;51.194;6.614;2023-03-23T02:16:11;3.73;;;1.93;;
5277;SDS011;2662;51.194;6.614;2023-03-23T02:18:47;11.43;;;2.60;;
5277;SDS011;2662;51.194;6.614;2023-03-23T02:21:26;12.17;;;2.37;;
5277;SDS011;2662;51.194;6.614;2023-03-23T02:24:23;3.37;;;2.63;;
5277;SDS011;2662;51.194;6.614;2023-03-23T02:27:08;2.93;;;2.20;;
5277;SDS011;2662;51.194;6.614;2023-03-23T02:29:52;3.37;;;2.20;;
5277;SDS011;2662;51.194;6.614;2023-03-23T02:32:51;2.43;;;2.23;;
5277;SDS011;2662;51.194;6.614;2023-03-23T02:35:47;3.73;;;1.97;;
5277;SDS011;2662;51.194;6.614;2023-03-23T02:38:21;2.13;;;1.87;;
5277;SDS011;2662;51.194;6.614;2023-03-23T02:40:53;4.67;;;2.23;;
5277;SDS011;2662;51.194;6.614;2023-03-23T02:43:23;2.30;;;1.87;;
5277;SDS011;2662;51.194;6.614;2023-03-23T02:45:51;1.80;;;1.70;;
5277;SDS011;2662;51.194;6.614;2023-03-23T02:48:22;1.77;;;1.67;;
5277;SDS011;2662;51.194;6.614;2023-03-23T02:50:54;1.90;;;1.80;;
5277;SDS011;2662;51.194;6.614;2023-03-23T02:53:22;2.37;;;2.17;;
5277;SDS011;2662;51.194;6.614;2023-03-23T02:55:50;3.13;;;1.67;;
5277;SDS011;2662;51.194;6.614;2023-03-23T02:58:20;3.00;;;1.60;;
5277;SDS011;2662;51.194;6.614;2023-03-23T03:00:48;2.30;;;2.10;;
5277;SDS011;2662;51.194;6.614;2023-03-23T03:03:15;2.63;;;1.80;;
5277;SDS011;2662;51.194;6.614;2023-03-23T03:05:47;1.67;;;1.50;;
5277;SDS011;2662;51.194;6.614;2023-03-23T03:08:24;4.40;;;1.70;;
5277;SDS011;2662;51.194;6.614;2023-03-23T03:10:57;2.43;;;1.60;;
5277;SDS011;2662;51.194;6.614;2023-03-23T03:13:32;1.80;;;1.67;;
5277;SDS011;2662;51.194;6.614;2023-03-23T03:16:06;2.40;;;1.37;;
5277;SDS011;2662;51.194;6.614;2023-03-23T03:18:42;3.50;;;1.50;;
5277;SDS011;2662;51.194;6.614;2023-03-23T03:21:14;2.10;;;1.77;;
5277;SDS011;2662;51.194;6.614;2023-03-23T03:23:45;1.50;;;1.40;;
5277;SDS011;2662;51.194;6.614;2023-03-23T03:26:16;1.63;;;1.53;;
5277;SDS011;2662;51.194;6.614;2023-03-23T03:28:45;2.90;;;1.60;;
5277;SDS011;2662;51.194;6.614;2023-03-23T03:31:15;1.53;;;1.43;;
5277;SDS011;2662;51.194;6.614;2023-03-23T03:33:45;1.77;;;1.67;;
5277;SDS011;2662;51.194;6.614;2023-03-23T03:36:15;2.50;;;1.57;;
5277;SDS011;2662;51.194;6.614;2023-03-23T03:38:47;7.73;;;2.10;;
5277;SDS011;2662;51.194;6.614;2023-03-23T03:41:15;1.40;;;1.30;;
5277;SDS011;2662;51.194;6.614;2023-03-23T03:43:43;1.37;;;1.27;;
5277;SDS011;2662;51.194;6.614;2023-03-23T03:46:10;2.43;;;1.47;;
5277;SDS011;2662;51.194;6.614;2023-03-23T03:48:37;1.37;;;1.33;;
5277;SDS011;2662;51.194;6.614;2023-03-23T03:51:04;4.57;;;2.00;;
5277;SDS011;2662;51.194;6.614;2023-03-23T03:53:32;2.53;;;1.60;;
5277;SDS011;2662;51.194;6.614;2023-03-23T03:55:59;1.40;;;1.30;;
5277;SDS011;2662;51.194;6.614;2023-03-23T03:58:26;1.60;;;1.50;;
5277;SDS011;2662;51.194;6.614;2023-03-23T04:00:56;1.50;;;1.40;;
5277;SDS011;2662;51.194;6.614;2023-03-23T04:03:24;1.97;;;1.40;;
5277;SDS011;2662;51.194;6.614;2023-03-23T04:05:52;3.20;;;1.50;;
5277;SDS011;2662;51.194;6.614;2023-03-23T04:08:20;1.53;;;1.30;;
5277;SDS011;2662;51.194;6.614;2023-03-23T04:10:48;1.60;;;1.50;;
5277;SDS011;2662;51.194;6.614;2023-03-23T04:13:16;1.40;;;1.30;;
5277;SDS011;2662;51.194;6.614;2023-03-23T04:15:43;3.83;;;1.80;;
5277;SDS011;2662;51.194;6.614;2023-03-23T04:18:10;2.60;;;1.43;;
5277;SDS011;2662;51.194;6.614;2023-03-23T04:20:38;1.80;;;1.70;;
5277;SDS011;2662;51.194;6.614;2023-03-23T04:23:05;1.63;;;1.53;;
5277;SDS011;2662;51.194;6.614;2023-03-23T04:25:32;2.40;;;1.53;;
5277;SDS011;2662;51.194;6.614;2023-03-23T04:28:00;2.40;;;1.30;;
5277;SDS011;2662;51.194;6.614;2023-03-23T04:30:27;1.67;;;1.57;;
5277;SDS011;2662;51.194;6.614;2023-03-23T04:32:56;1.77;;;1.40;;
5277;SDS011;2662;51.194;6.614;2023-03-23T04:35:25;1.60;;;1.50;;
5277;SDS011;2662;51.194;6.614;2023-03-23T04:37:53;2.43;;;1.60;;
5277;SDS011;2662;51.194;6.614;2023-03-23T04:40:20;1.53;;;1.43;;
5277;SDS011;2662;51.194;6.614;2023-03-23T04:42:47;2.00;;;1.77;;
5277;SDS011;2662;51.194;6.614;2023-03-23T04:45:18;1.80;;;1.70;;
5277;SDS011;2662;51.194;6.614;2023-03-23T04:47:47;2.63;;;1.90;;
5277;SDS011;2662;51.194;6.614;2023-03-23T04:50:18;2.50;;;1.37;;
5277;SDS011;2662;51.194;6.614;2023-03-23T04:52:46;2.53;;;1.70;;
5277;SDS011;2662;51.194;6.614;2023-03-23T04:55:13;2.00;;;1.73;;
5277;SDS011;2662;51.194;6.614;2023-03-23T04:57:40;1.67;;;1.37;;
5277;SDS011;2662;51.194;6.614;2023-03-23T05:00:07;3.53;;;1.60;;
5277;SDS011;2662;51.194;6.614;2023-03-23T05:02:38;5.53;;;1.67;;
5277;SDS011;2662;51.194;6.614;2023-03-23T05:05:06;5.90;;;1.80;;
5277;SDS011;2662;51.194;6.614;2023-03-23T05:07:33;2.90;;;1.80;;
5277;SDS011;2662;51.194;6.614;2023-03-23T05:10:00;4.93;;;2.00;;
5277;SDS011;2662;51.194;6.614;2023-03-23T05:12:27;2.73;;;2.00;;
5277;SDS011;2662;51.194;6.614;2023-03-23T05:14:53;2.63;;;2.03;;
5277;SDS011;2662;51.194;6.614;2023-03-23T05:17:20;2.23;;;2.07;;
5277;SDS011;2662;51.194;6.614;2023-03-23T05:19:50;3.23;;;1.73;;
5277;SDS011;2662;51.194;6.614;2023-03-23T05:22:18;3.53;;;2.37;;
5277;SDS011;2662;51.194;6.614;2023-03-23T05:24:47;6.37;;;2.20;;
5277;SDS011;2662;51.194;6.614;2023-03-23T05:27:17;5.33;;;1.70;;
5277;SDS011;2662;51.194;6.614;2023-03-23T05:29:44;2.27;;;2.07;;
5277;SDS011;2662;51.194;6.614;2023-03-23T05:32:13;2.73;;;1.77;;
5277;SDS011;2662;51.194;6.614;2023-03-23T05:34:40;2.20;;;2.00;;
5277;SDS011;2662;51.194;6.614;2023-03-23T05:37:09;1.93;;;1.83;;
5277;SDS011;2662;51.194;6.614;2023-03-23T05:39:37;3.17;;;1.80;;
5277;SDS011;2662;51.194;6.614;2023-03-23T05:42:05;2.70;;;2.40;;
5277;SDS011;2662;51.194;6.614;2023-03-23T05:44:32;5.87;;;1.70;;
5277;SDS011;2662;51.194;6.614;2023-03-23T05:46:59;3.87;;;2.13;;
5277;SDS011;2662;51.194;6.614;2023-03-23T05:49:26;2.50;;;1.93;;
5277;SDS011;2662;51.194;6.614;2023-03-23T05:51:53;4.43;;;1.73;;
5277;SDS011;2662;51.194;6.614;2023-03-23T05:54:21;2.70;;;1.90;;
5277;SDS011;2662;51.194;6.614;2023-03-23T05:56:48;2.40;;;1.93;;
5277;SDS011;2662;51.194;6.614;2023-03-23T05:59:15;3.73;;;1.70;;
5277;SDS011;2662;51.194;6.614;2023-03-23T06:01:42;3.40;;;2.00;;
5277;SDS011;2662;51.194;6.614;2023-03-23T06:04:08;2.07;;;1.90;;
5277;SDS011;2662;51.194;6.614;2023-03-23T06:06:36;3.70;;;1.80;;
5277;SDS011;2662;51.194;6.614;2023-03-23T06:09:03;2.10;;;1.53;;
5277;SDS011;2662;51.194;6.614;2023-03-23T06:11:33;3.30;;;1.67;;
5277;SDS011;2662;51.194;6.614;2023-03-23T06:14:00;4.80;;;1.90;;
5277;SDS011;2662;51.194;6.614;2023-03-23T06:16:27;6.17;;;2.27;;
5277;SDS011;2662;51.194;6.614;2023-03-23T06:18:54;2.70;;;1.43;;
5277;SDS011;2662;51.194;6.614;2023-03-23T06:21:22;3.20;;;1.60;;
5277;SDS011;2662;51.194;6.614;2023-03-23T06:23:49;5.00;;;1.70;;
5277;SDS011;2662;51.194;6.614;2023-03-23T06:26:15;9.40;;;2.50;;
5277;SDS011;2662;51.194;6.614;2023-03-23T06:28:46;2.13;;;1.70;;
5277;SDS011;2662;51.194;6.614;2023-03-23T06:31:14;5.13;;;1.80;;
5277;SDS011;2662;51.194;6.614;2023-03-23T06:33:42;2.30;;;1.50;;
5277;SDS011;2662;51.194;6.614;2023-03-23T06:36:10;2.90;;;1.63;;
5277;SDS011;2662;51.194;6.614;2023-03-23T06:38:37;1.40;;;1.30;;
5277;SDS011;2662;51.194;6.614;2023-03-23T06:41:04;2.23;;;1.60;;
5277;SDS011;2662;51.194;6.614;2023-03-23T06:43:31;3.23;;;1.70;;
5277;SDS011;2662;51.194;6.614;2023-03-23T06:46:00;2.60;;;1.40;;
5277;SDS011;2662;51.194;6.614;2023-03-23T06:48:26;3.40;;;1.40;;
5277;SDS011;2662;51.194;6.614;2023-03-23T06:50:53;2.03;;;1.60;;
5277;SDS011;2662;51.194;6.614;2023-03-23T06:53:20;2.50;;;1.40;;
5277;SDS011;2662;51.194;6.614;2023-03-23T06:55:46;3.00;;;1.47;;
5277;SDS011;2662;51.194;6.614;2023-03-23T06:58:13;3.83;;;1.70;;
5277;SDS011;2662;51.194;6.614;2023-03-23T07:00:40;2.17;;;1.40;;
5277;SDS011;2662;51.194;6.614;2023-03-23T07:03:08;4.23;;;1.60;;
5277;SDS011;2662;51.194;6.614;2023-03-23T07:05:35;4.07;;;1.60;;
5277;SDS011;2662;51.194;6.614;2023-03-23T07:08:02;6.03;;;1.90;;
5277;SDS011;2662;51.194;6.614;2023-03-23T07:10:29;2.83;;;1.87;;
5277;SDS011;2662;51.194;6.614;2023-03-23T07:12:56;5.00;;;2.00;;
5277;SDS011;2662;51.194;6.614;2023-03-23T07:15:24;2.50;;;1.13;;
5277;SDS011;2662;51.194;6.614;2023-03-23T07:17:51;5.63;;;1.50;;
5277;SDS011;2662;51.194;6.614;2023-03-23T07:20:20;1.97;;;1.30;;
5277;SDS011;2662;51.194;6.614;2023-03-23T07:22:47;5.03;;;1.93;;
5277;SDS011;2662;51.194;6.614;2023-03-23T07:25:14;4.30;;;1.77;;
5277;SDS011;2662;51.194;6.614;2023-03-23T07:27:41;3.27;;;1.40;;
5277;SDS011;2662;51.194;6.614;2023-03-23T07:30:11;2.20;;;1.30;;
5277;SDS011;2662;51.194;6.614;2023-03-23T07:32:38;2.30;;;1.40;;
5277;SDS011;2662;51.194;6.614;2023-03-23T07:35:05;1.57;;;1.33;;
5277;SDS011;2662;51.194;6.614;2023-03-23T07:37:35;2.93;;;1.23;;
5277;SDS011;2662;51.194;6.614;2023-03-23T07:40:02;1.47;;;1.20;;
5277;SDS011;2662;51.194;6.614;2023-03-23T07:42:39;1.90;;;1.20;;
5277;SDS011;2662;51.194;6.614;2023-03-23T07:45:07;4.00;;;1.73;;
5277;SDS011;2662;51.194;6.614;2023-03-23T07:47:34;6.30;;;1.73;;
5277;SDS011;2662;51.194;6.614;2023-03-23T07:50:01;2.50;;;1.10;;
5277;SDS011;2662;51.194;6.614;2023-03-23T07:52:28;11.20;;;2.07;;
5277;SDS011;2662;51.194;6.614;2023-03-23T07:54:57;3.27;;;1.20;;
5277;SDS011;2662;51.194;6.614;2023-03-23T07:57:23;2.53;;;1.23;;
5277;SDS011;2662;51.194;6.614;2023-03-23T07:59:51;3.67;;;1.30;;
5277;SDS011;2662;51.194;6.614;2023-03-23T08:02:17;3.47;;;1.37;;
5277;SDS011;2662;51.194;6.614;2023-03-23T08:04:44;2.17;;;1.23;;
5277;SDS011;2662;51.194;6.614;2023-03-23T08:07:12;1.67;;;1.30;;
5277;SDS011;2662;51.194;6.614;2023-03-23T08:09:41;4.67;;;1.37;;
5277;SDS011;2662;51.194;6.614;2023-03-23T08:12:09;5.53;;;2.37;;
5277;SDS011;2662;51.194;6.614;2023-03-23T08:14:37;4.27;;;1.40;;
5277;SDS011;2662;51.194;6.614;2023-03-23T08:17:05;4.63;;;1.27;;
5277;SDS011;2662;51.194;6.614;2023-03-23T08:19:31;6.07;;;1.50;;
5277;SDS011;2662;51.194;6.614;2023-03-23T08:22:01;2.27;;;1.20;;
5277;SDS011;2662;51.194;6.614;2023-03-23T08:24:28;2.57;;;1.93;;
5277;SDS011;2662;51.194;6.614;2023-03-23T08:26:55;6.73;;;1.80;;
5277;SDS011;2662;51.194;6.614;2023-03-23T08:29:23;6.30;;;1.33;;
5277;SDS011;2662;51.194;6.614;2023-03-23T08:31:50;2.80;;;1.20;;
5277;SDS011;2662;51.194;6.614;2023-03-23T08:34:17;6.37;;;1.30;;
5277;SDS011;2662;51.194;6.614;2023-03-23T08:36:43;4.17;;;1.30;;
5277;SDS011;2662;51.194;6.614;2023-03-23T08:39:11;5.23;;;1.83;;
5277;SDS011;2662;51.194;6.614;2023-03-23T08:41:39;3.57;;;1.33;;
5277;SDS011;2662;51.194;6.614;2023-03-23T08:44:06;5.47;;;1.40;;
5277;SDS011;2662;51.194;6.614;2023-03-23T08:46:35;6.07;;;1.60;;
5277;SDS011;2662;51.194;6.614;2023-03-23T08:49:02;5.80;;;1.70;;
5277;SDS011;2662;51.194;6.614;2023-03-23T08:51:30;5.20;;;1.40;;
5277;SDS011;2662;51.194;6.614;2023-03-23T08:53:57;8.33;;;1.43;;
5277;SDS011;2662;51.194;6.614;2023-03-23T08:56:25;3.00;;;1.30;;
5277;SDS011;2662;51.194;6.614;2023-03-23T08:58:52;3.43;;;1.57;;
5277;SDS011;2662;51.194;6.614;2023-03-23T09:01:19;2.63;;;1.27;;
5277;SDS011;2662;51.194;6.614;2023-03-23T09:03:47;1.60;;;1.07;;
5277;SDS011;2662;51.194;6.614;2023-03-23T09:06:15;10.73;;;1.30;;
5277;SDS011;2662;51.194;6.614;2023-03-23T09:08:42;2.63;;;1.10;;
5277;SDS011;2662;51.194;6.614;2023-03-23T09:11:09;6.30;;;1.20;;
5277;SDS011;2662;51.194;6.614;2023-03-23T09:13:37;5.37;;;1.30;;
5277;SDS011;2662;51.194;6.614;2023-03-23T09:16:05;4.87;;;1.37;;
5277;SDS011;2662;51.194;6.614;2023-03-23T09:18:32;4.87;;;1.30;;
5277;SDS011;2662;51.194;6.614;2023-03-23T09:21:01;6.83;;;1.37;;
5277;SDS011;2662;51.194;6.614;2023-03-23T09:23:28;3.43;;;1.20;;
5277;SDS011;2662;51.194;6.614;2023-03-23T09:25:56;9.17;;;1.43;;
5277;SDS011;2662;51.194;6.614;2023-03-23T09:28:23;5.77;;;1.90;;
5277;SDS011;2662;51.194;6.614;2023-03-23T09:30:49;2.93;;;1.37;;
5277;SDS011;2662;51.194;6.614;2023-03-23T09:33:16;3.20;;;1.60;;
5277;SDS011;2662;51.194;6.614;2023-03-23T09:35:43;14.83;;;2.27;;
5277;SDS011;2662;51.194;6.614;2023-03-23T09:38:11;10.43;;;1.30;;
5277;SDS011;2662;51.194;6.614;2023-03-23T09:40:40;4.43;;;1.50;;
5277;SDS011;2662;51.194;6.614;2023-03-23T09:43:22;5.30;;;1.10;;
5277;SDS011;2662;51.194;6.614;2023-03-23T09:46:00;5.17;;;1.23;;
5277;SDS011;2662;51.194;6.614;2023-03-23T09:48:40;1.03;;;0.80;;
5277;SDS011;2662;51.194;6.614;2023-03-23T09:51:14;9.40;;;2.10;;
5277;SDS011;2662;51.194;6.614;2023-03-23T09:54:01;6.53;;;1.10;;
5277;SDS011;2662;51.194;6.614;2023-03-23T09:56:32;0.77;;;0.60;;
5277;SDS011;2662;51.194;6.614;2023-03-23T09:59:01;2.20;;;0.60;;
5277;SDS011;2662;51.194;6.614;2023-03-23T10:01:32;1.50;;;0.80;;
5277;SDS011;2662;51.194;6.614;2023-03-23T10:04:03;3.40;;;0.70;;
5277;SDS011;2662;51.194;6.614;2023-03-23T10:06:35;1.10;;;0.77;;
5277;SDS011;2662;51.194;6.614;2023-03-23T10:09:04;0.93;;;0.90;;
5277;SDS011;2662;51.194;6.614;2023-03-23T10:11:35;0.83;;;0.60;;
5277;SDS011;2662;51.194;6.614;2023-03-23T10:14:15;1.73;;;1.13;;
5277;SDS011;2662;51.194;6.614;2023-03-23T10:16:55;1.63;;;0.70;;
5277;SDS011;2662;51.194;6.614;2023-03-23T10:19:27;1.57;;;0.60;;
5277;SDS011;2662;51.194;6.614;2023-03-23T10:21:59;0.80;;;0.70;;
5277;SDS011;2662;51.194;6.614;2023-03-23T10:24:34;1.70;;;0.70;;
5277;SDS011;2662;51.194;6.614;2023-03-23T10:27:05;0.60;;;0.50;;
5277;SDS011;2662;51.194;6.614;2023-03-23T10:29:40;1.80;;;0.80;;
5277;SDS011;2662;51.194;6.614;2023-03-23T10:32:12;3.07;;;0.70;;
5277;SDS011;2662;51.194;6.614;2023-03-23T10:34:43;2.10;;;0.70;;
5277;SDS011;2662;51.194;6.614;2023-03-23T10:37:15;1.17;;;0.63;;
5277;SDS011;2662;51.194;6.614;2023-03-23T10:39:48;1.93;;;0.90;;
5277;SDS011;2662;51.194;6.614;2023-03-23T10:42:26;1.07;;;0.87;;
5277;SDS011;2662;51.194;6.614;2023-03-23T10:44:55;2.07;;;0.83;;
5277;SDS011;2662;51.194;6.614;2023-03-23T10:47:23;1.80;;;0.70;;
5277;SDS011;2662;51.194;6.614;2023-03-23T10:49:50;2.93;;;1.00;;
5277;SDS011;2662;51.194;6.614;2023-03-23T10:52:27;4.90;;;0.87;;
5277;SDS011;2662;51.194;6.614;2023-03-23T10:55:01;1.27;;;0.70;;
5277;SDS011;2662;51.194;6.614;2023-03-23T10:57:30;2.10;;;1.07;;
5277;SDS011;2662;51.194;6.614;2023-03-23T11:00:00;1.43;;;0.70;;
5277;SDS011;2662;51.194;6.614;2023-03-23T11:02:32;3.13;;;0.90;;
5277;SDS011;2662;51.194;6.614;2023-03-23T11:05:04;1.70;;;0.97;;
5277;SDS011;2662;51.194;6.614;2023-03-23T11:07:39;1.30;;;1.10;;
5277;SDS011;2662;51.194;6.614;2023-03-23T11:10:16;3.17;;;1.00;;
5277;SDS011;2662;51.194;6.614;2023-03-23T11:12:49;1.10;;;0.90;;
5277;SDS011;2662;51.194;6.614;2023-03-23T11:15:21;1.47;;;1.00;;
5277;SDS011;2662;51.194;6.614;2023-03-23T11:17:54;2.40;;;1.07;;
5277;SDS011;2662;51.194;6.614;2023-03-23T11:20:26;1.10;;;1.00;;
5277;SDS011;2662;51.194;6.614;2023-03-23T11:22:54;1.33;;;1.23;;
5277;SDS011;2662;51.194;6.614;2023-03-23T11:25:23;2.10;;;0.97;;
5277;SDS011;2662;51.194;6.614;2023-03-23T11:27:51;1.30;;;0.97;;
5277;SDS011;2662;51.194;6.614;2023-03-23T11:30:20;1.47;;;0.90;;
5277;SDS011;2662;51.194;6.614;2023-03-23T11:32:49;2.90;;;1.17;;
5277;SDS011;2662;51.194;6.614;2023-03-23T11:35:18;2.50;;;1.17;;
5277;SDS011;2662;51.194;6.614;2023-03-23T11:37:47;1.53;;;1.40;;
5277;SDS011;2662;51.194;6.614;2023-03-23T11:40:18;1.07;;;1.07;;
5277;SDS011;2662;51.194;6.614;2023-03-23T11:42:48;1.27;;;1.17;;
5277;SDS011;2662;51.194;6.614;2023-03-23T11:45:30;3.27;;;1.00;;
5277;SDS011;2662;51.194;6.614;2023-03-23T11:48:01;3.07;;;1.00;;
5277;SDS011;2662;51.194;6.614;2023-03-23T11:50:44;1.13;;;1.00;;
5277;SDS011;2662;51.194;6.614;2023-03-23T11:53:17;1.17;;;1.00;;
5277;SDS011;2662;51.194;6.614;2023-03-23T11:55:52;2.87;;;1.00;;
5277;SDS011;2662;51.194;6.614;2023-03-23T11:58:25;2.07;;;1.30;;
5277;SDS011;2662;51.194;6.614;2023-03-23T12:00:58;3.83;;;1.30;;
5277;SDS011;2662;51.194;6.614;2023-03-23T12:03:36;1.20;;;1.10;;
5277;SDS011;2662;51.194;6.614;2023-03-23T12:06:15;1.67;;;1.57;;
5277;SDS011;2662;51.194;6.614;2023-03-23T12:08:53;1.30;;;1.20;;
5277;SDS011;2662;51.194;6.614;2023-03-23T12:11:26;2.40;;;1.70;;
5277;SDS011;2662;51.194;6.614;2023-03-23T12:14:06;1.70;;;1.60;;
5277;SDS011;2662;51.194;6.614;2023-03-23T12:16:44;1.80;;;1.30;;
5277;SDS011;2662;51.194;6.614;2023-03-23T12:19:24;4.20;;;1.73;;
5277;SDS011;2662;51.194;6.614;2023-03-23T12:21:57;1.43;;;1.33;;
5277;SDS011;2662;51.194;6.614;2023-03-23T12:24:34;3.80;;;1.57;;
5277;SDS011;2662;51.194;6.614;2023-03-23T12:27:10;1.70;;;1.60;;
5277;SDS011;2662;51.194;6.614;2023-03-23T12:29:47;2.87;;;2.20;;
5277;SDS011;2662;51.194;6.614;2023-03-23T12:32:25;3.80;;;2.13;;
5277;SDS011;2662;51.194;6.614;2023-03-23T12:35:04;2.87;;;2.40;;
5277;SDS011;2662;51.194;6.614;2023-03-23T12:37:44;4.40;;;2.27;;
5277;SDS011;2662;51.194;6.614;2023-03-23T12:40:22;2.87;;;1.60;;
5277;SDS011;2662;51.194;6.614;2023-03-23T12:43:13;3.10;;;1.70;;
5277;SDS011;2662;51.194;6.614;2023-03-23T12:45:54;1.77;;;1.67;;
5277;SDS011;2662;51.194;6.614;2023-03-23T12:48:29;3.67;;;2.10;;
5277;SDS011;2662;51.194;6.614;2023-03-23T12:51:03;1.63;;;1.50;;
5277;SDS011;2662;51.194;6.614;2023-03-23T12:53:40;4.57;;;1.67;;
5277;SDS011;2662;51.194;6.614;2023-03-23T12:56:14;2.57;;;1.70;;
5277;SDS011;2662;51.194;6.614;2023-03-23T12:58:45;5.70;;;1.80;;
5277;SDS011;2662;51.194;6.614;2023-03-23T13:01:17;1.90;;;1.50;;
5277;SDS011;2662;51.194;6.614;2023-03-23T13:03:49;2.73;;;1.63;;
5277;SDS011;2662;51.194;6.614;2023-03-23T13:06:22;2.23;;;1.53;;
5277;SDS011;2662;51.194;6.614;2023-03-23T13:08:55;2.17;;;1.40;;
5277;SDS011;2662;51.194;6.614;2023-03-23T13:11:30;1.50;;;1.40;;
5277;SDS011;2662;51.194;6.614;2023-03-23T13:14:01;1.50;;;1.40;;
5277;SDS011;2662;51.194;6.614;2023-03-23T13:16:37;3.00;;;1.63;;
5277;SDS011;2662;51.194;6.614;2023-03-23T13:19:08;2.37;;;1.70;;
5277;SDS011;2662;51.194;6.614;2023-03-23T13:21:41;2.50;;;2.10;;
5277;SDS011;2662;51.194;6.614;2023-03-23T13:24:13;6.07;;;1.80;;
5277;SDS011;2662;51.194;6.614;2023-03-23T13:26:43;3.90;;;2.00;;
5277;SDS011;2662;51.194;6.614;2023-03-23T13:29:13;3.40;;;1.70;;
5277;SDS011;2662;51.194;6.614;2023-03-23T13:31:44;2.03;;;1.80;;
5277;SDS011;2662;51.194;6.614;2023-03-23T13:34:15;2.83;;;1.80;;
5277;SDS011;2662;51.194;6.614;2023-03-23T13:36:51;2.60;;;1.80;;
5277;SDS011;2662;51.194;6.614;2023-03-23T13:39:20;2.17;;;2.07;;
5277;SDS011;2662;51.194;6.614;2023-03-23T13:41:58;2.20;;;1.97;;
5277;SDS011;2662;51.194;6.614;2023-03-23T13:44:38;5.50;;;2.50;;
5277;SDS011;2662;51.194;6.614;2023-03-23T13:47:16;7.30;;;2.20;;
5277;SDS011;2662;51.194;6.614;2023-03-23T13:49:49;4.40;;;2.33;;
5277;SDS011;2662;51.194;6.614;2023-03-23T13:52:21;1.97;;;1.87;;
5277;SDS011;2662;51.194;6.614;2023-03-23T13:54:50;3.17;;;2.27;;
5277;SDS011;2662;51.194;6.614;2023-03-23T13:57:25;6.40;;;2.40;;
5277;SDS011;2662;51.194;6.614;2023-03-23T14:00:09;2.67;;;1.70;;
5277;SDS011;2662;51.194;6.614;2023-03-23T14:02:42;4.27;;;1.93;;
5277;SDS011;2662;51.194;6.614;2023-03-23T14:05:10;1.67;;;1.43;;
5277;SDS011;2662;51.194;6.614;2023-03-23T14:07:51;1.93;;;1.30;;
5277;SDS011;2662;51.194;6.614;2023-03-23T14:10:20;1.73;;;1.10;;
5277;SDS011;2662;51.194;6.614;2023-03-23T14:12:48;4.23;;;0.60;;
5277;SDS011;2662;51.194;6.614;2023-03-23T14:15:18;2.40;;;0.77;;
5277;SDS011;2662;51.194;6.614;2023-03-23T14:17:47;2.20;;;1.10;;
5277;SDS011;2662;51.194;6.614;2023-03-23T14:20:19;1.27;;;0.93;;
5277;SDS011;2662;51.194;6.614;2023-03-23T14:22:53;1.53;;;1.20;;
5277;SDS011;2662;51.194;6.614;2023-03-23T14:25:21;3.13;;;1.10;;
5277;SDS011;2662;51.194;6.614;2023-03-23T14:27:50;3.73;;;1.27;;
5277;SDS011;2662;51.194;6.614;2023-03-23T14:30:19;1.93;;;1.10;;
5277;SDS011;2662;51.194;6.614;2023-03-23T14:32:49;3.83;;;1.13;;
5277;SDS011;2662;51.194;6.614;2023-03-23T14:35:18;2.43;;;1.20;;
5277;SDS011;2662;51.194;6.614;2023-03-23T14:37:48;5.23;;;1.00;;
5277;SDS011;2662;51.194;6.614;2023-03-23T14:40:16;2.67;;;1.03;;
5277;SDS011;2662;51.194;6.614;2023-03-23T14:42:44;1.53;;;1.30;;
5277;SDS011;2662;51.194;6.614;2023-03-23T14:45:12;3.57;;;1.37;;
5277;SDS011;2662;51.194;6.614;2023-03-23T14:47:42;2.37;;;1.17;;
5277;SDS011;2662;51.194;6.614;2023-03-23T14:50:29;4.40;;;1.90;;
5277;SDS011;2662;51.194;6.614;2023-03-23T14:52:57;4.60;;;1.67;;
5277;SDS011;2662;51.194;6.614;2023-03-23T14:55:27;4.40;;;1.60;;
5277;SDS011;2662;51.194;6.614;2023-03-23T14:58:04;5.90;;;1.63;;
5277;SDS011;2662;51.194;6.614;2023-03-23T15:00:34;9.27;;;2.70;;
5277;SDS011;2662;51.194;6.614;2023-03-23T15:03:04;2.43;;;1.70;;
5277;SDS011;2662;51.194;6.614;2023-03-23T15:05:38;2.80;;;1.70;;
5277;SDS011;2662;51.194;6.614;2023-03-23T15:08:11;5.27;;;1.77;;
5277;SDS011;2662;51.194;6.614;2023-03-23T15:10:40;3.07;;;1.53;;
5277;SDS011;2662;51.194;6.614;2023-03-23T15:13:09;4.23;;;1.53;;
5277;SDS011;2662;51.194;6.614;2023-03-23T15:15:38;4.93;;;1.40;;
5277;SDS011;2662;51.194;6.614;2023-03-23T15:18:05;3.00;;;1.47;;
5277;SDS011;2662;51.194;6.614;2023-03-23T15:20:52;10.60;;;2.60;;
5277;SDS011;2662;51.194;6.614;2023-03-23T15:23:21;3.30;;;1.40;;
5277;SDS011;2662;51.194;6.614;2023-03-23T15:25:52;8.83;;;1.80;;
5277;SDS011;2662;51.194;6.614;2023-03-23T15:28:21;5.50;;;1.30;;
5277;SDS011;2662;51.194;6.614;2023-03-23T15:30:54;4.00;;;1.53;;
5277;SDS011;2662;51.194;6.614;2023-03-23T15:33:23;4.67;;;1.63;;